NCAR-RAP Real-Time Weather Data

Output produced by METARs form (24 April 2018  22:58 UTC)
found at http://weather.rap.ucar.edu/surface/
 
RJFK 242200Z 31009KT 9999 FEW005 14/13 Q1007 RMK 1ST005 A2974
RJFK 242100Z 32010KT 9999 VCFG FEW001 13/12 Q1006 RMK 1ST001 A2971 FG NE-E VOLCANIC ASH CLOUD S
RJFK 241200Z 24009KT 200V270 4000 -SHRA BR FEW002 BKN004 BKN007 19/19 Q1004 RMK 1ST002 5ST004 6ST007 A2966
RJFK 241130Z 25012KT 4000 -SHRA BR FEW001 BKN003 BKN007 20/19 Q1004 RMK 1ST001 5ST003 6ST007 A2965
RJFK 241117Z 22010KT 190V260 4000 R34/1200VP2000U SHRA BR FEW001 BKN003 BKN007 20/20 Q1004 RMK 1ST001 5ST003 6ST007 A2965
RJFK 241111Z 20011KT 4000 R34/1000VP2000D SHRA BR FEW001 BKN003 BKN007 20/20 Q1004 RMK 1ST001 5ST003 6ST007 A2965
RJFK 241100Z 19011KT 4000 -SHRA BR FEW001 BKN003 BKN007 20/20 Q1003 RMK 1ST001 5ST003 6ST007 A2964
RJFK 241000Z 19014KT 4000 SHRA BR FEW001 BKN004 BKN007 20/20 Q1003 RMK 1ST001 5ST004 6ST007 A2963
RJFK 240947Z 19014KT 4000 R34/1100VP2000U SHRA BR FEW001 BKN004 BKN007 20/20 Q1003 RMK 1ST001 5ST004 6ST007 A2963
RJFK 240943Z 19014G24KT 2000 R34/1100VP2000D SHRA BR FEW001 BKN003 BKN007 20/20 Q1003 RMK 1ST001 5ST003 6ST007 A2963
RJFK 240931Z 20017G27KT 2000 R34/0800VP2000D SHRA BR FEW001 BKN003 BKN007 20/20 Q1003 RMK 1ST001 5ST003 6ST007 A2963
RJFK 240929Z 20019KT 2000 R34/0800VP2000D +SHRA BR FEW001 BKN003 BKN007 20/20 Q1003 RMK 1ST001 5ST003 6ST007 A2963
RJFK 240921Z 19021G32KT 150V220 2000 R34/0800VP2000U SHRA BR FEW001 BKN003 BKN007 20/20 Q1003 RMK 1ST001 5ST003 6ST007 A2963
RJFK 240919Z 19019G32KT 150V220 2000 R34/0750VP2000U SHRA BR FEW001 BKN003 BKN007 20/20 Q1003 RMK 1ST001 5ST003 6ST007 A2962
RJFK 240914Z 17015G32KT 140V220 1500 R34/0400V1300U +SHRA BR FEW001 BKN003 BKN007 20/20 Q1002 RMK 1ST001 5ST003 6ST007 A2961
RJFK 240906Z 17015KT 140V210 1000 R34/0400VP2000D +SHRA BR FEW001 BKN003 BKN007 20/20 Q1002 RMK 1ST001 5ST003 6ST007 A2961
RJFK 240903Z 17016KT 1000 R34/0450VP2000D +SHRA BR FEW001 BKN003 BKN007 20/20 Q1003 RMK 1ST001 5ST003 6ST007 A2962 RI++
RJFK 240902Z 17016KT 2000 R34/0600VP2000D +SHRA BR FEW001 BKN003 BKN007 20/20 Q1003 RMK 1ST001 5ST003 6ST007 A2962
RJFK 240900Z 17017KT 2000 R34/0800VP2000D SHRA BR FEW001 BKN003 BKN007 20/20 Q1003
RJFK 240848Z 18016KT 3000 -SHRA BR FEW001 BKN003 BKN007 20/20 Q1003 RMK 1ST001 5ST003 6ST007 A2963
RJFK 240839Z 18014KT 3000 R34/0900VP2000U SHRA BR FEW001 BKN003 BKN007 20/20 Q1003 RMK 1ST001 5ST003 6ST007 A2964
RJFK 240831Z 18017KT 2000 R34/0900VP2000D +SHRA BR FEW001 BKN003 BKN007 20/20 Q1003 RMK 1ST001 5ST003 6ST007 A2964
RJFK 240807Z 18016G26KT 2000 R34/1100VP2000D SHRA BR FEW001 BKN003 BKN007 20/20 Q1003 RMK 1ST001 5ST003 6ST007 A2964
RJFK 240800Z 17016KT 3000 R34/1200VP2000U SHRA BR FEW001 BKN003 BKN007 20/20 Q1003
RJFK 240748Z 18013KT 160V230 2000 R34/0650VP2000U SHRA BR FEW001 BKN003 BKN007 20/20 Q1004 RMK 1ST001 5ST003 6ST007 A2965
RJFK 240746Z 18013KT 140V230 2000 R34/0600VP2000U SHRA BR FEW001 BKN003 BKN007 20/20 Q1004 RMK 1ST001 5ST003 6ST007 A2966
RJFK 240739Z 17013KT 2000 R34/0600VP2000D +SHRA BR FEW001 BKN003 BKN007 20/20 Q1004 RMK 1ST001 5ST003 6ST007 A2965
RJFK 240728Z 17012KT 2000 R34/0800V1700U SHRA BR FEW001 BKN003 BKN007 20/19 Q1004 RMK 1ST001 5ST003 6ST007 A2966
RJFK 240724Z 17011KT 2000 R34/0800V1900N +SHRA BR FEW001 BKN003 BKN007 20/19 Q1004 RMK 1ST001 5ST003 6ST007 A2966
RJFK 240719Z 17010KT 2000 R34/0800VP2000D +SHRA BR FEW001 BKN003 BKN007 19/19 Q1004 RMK 1ST001 5ST003 6ST007 A2967
RJFK 240715Z 16011KT 2500 R34/0500VP2000U SHRA BR FEW001 BKN003 BKN007 20/19 Q1004 RMK 1ST001 5ST003 6ST007 A2967
RJFK 240709Z 17012KT 2000 R34/0500VP2000D +SHRA BR FEW001 BKN003 BKN007 20/19 Q1004 RMK 1ST001 5ST003 6ST007 A2967
RJFK 240708Z 17012KT 1500 R34/0500VP2000D +SHRA BR FEW001 BKN003 BKN007 19/19 Q1004 RMK 1ST001 5ST003 6ST007 A2967 RI++
RJFK 240706Z 17011KT 1500 R34/0800VP2000D +SHRA BR FEW001 BKN003 BKN007 19/19 Q1004 RMK 1ST001 5ST003 6ST007 A2967 RI++
RJFK 240700Z 17011KT 2500 R34/1000VP2000U SHRA BR FEW001 BKN003 BKN007 19/19 Q1004 RMK 1ST001 5ST003 6ST007 A2967
RJFK 240650Z 17011KT 2500 R34/0800VP2000D SHRA BR FEW001 BKN003 BKN007 19/19 Q1005 RMK 1ST001 5ST003 6ST007 A2968
RJFK 240646Z 16011KT 2500 R34/1100VP2000U SHRA BR FEW001 BKN003 BKN007 19/19 Q1005 RMK 1ST001 5ST003 6ST007 A2968
RJFK 240636Z 16008KT 2000 R34/0900VP2000D SHRA BR FEW001 BKN003 BKN007 19/19 Q1005 RMK 1ST001 5ST003 6ST007 A2968
RJFK 240612Z 16011KT 2500 R34/2000N SHRA BR FEW003 BKN005 BKN007 20/19 Q1005 RMK 2ST003 5ST005 6ST007 A2970
RJFK 240600Z 17012KT 3000 -SHRA BR FEW003 BKN005 BKN007 19/19 Q1006 RMK 2ST003 5ST005 6ST007 A2971
RJFK 240548Z 17012KT 3000 R34/0800VP2000U SHRA BR FEW003 BKN005 BKN007 19/19 Q1006 RMK 2ST003 5ST005 6ST007 A2972
RJFK 240539Z 17013KT 2000 R34/0800VP2000D +SHRA BR FEW003 BKN005 BKN007 20/19 Q1006 RMK 1ST003 5ST005 6ST007 A2972
RJFK 240526Z 18014KT 3000 R34/2000N SHRA BR FEW003 BKN005 BKN007 20/19 Q1006 RMK 1ST003 5ST005 6ST007 A2972
RJFK 240500Z 17011KT 4000 -SHRA BR FEW003 BKN005 BKN007 19/19 Q1006 RMK 1ST003 5ST005 6ST007 A2972
RJFK 240400Z 17015KT 4000 -SHRA BR FEW003 BKN005 BKN007 20/19 Q1007 RMK 1ST003 5ST005 6ST007 A2974
RJFK 240336Z 17014KT 3000 R34/0800VP2000N SHRA BR FEW003 BKN005 BKN007 20/20 Q1007 RMK 1ST003 5ST005 6ST007 A2976
RJFK 240320Z 18013KT 4000 R34/2000N -SHRA BR FEW003 BKN004 BKN007 20/20 Q1008 RMK 1ST003 5ST004 6ST007 A2977
RJFK 240313Z 18012KT 5000 R34/0700VP2000U SHRA BR FEW003 BKN006 BKN012 20/19 Q1008 RMK 1ST003 5ST006 6CU012 A2977
RJFK 240305Z 18011KT 3000 R34/0500VP2000D SHRA BR FEW003 BKN006 BKN012 20/19 Q1008 RMK 1ST003 5ST006 6CU012 A2977
RJFK 240303Z 18012KT 2000 R34/0500VP2000D +SHRA BR FEW003 BKN006 BKN012 20/19 Q1008 RMK 1ST003 5ST006 6CU012 A2977 RI++
RJFK 240302Z 18012KT 2000 R34/0500VP2000D +SHRA BR FEW003 BKN006 BKN012 20/19 Q1008 RMK 1ST003 5ST006 6CU012 A2978
RJFK 240300Z 18012KT 2000 R34/0600VP2000D +SHRA BR FEW003 BKN006 BKN012 20/19 Q1008 RMK 1ST003 5ST006 6CU012 A2978 RI++
RJFK 240245Z 17010KT 6000 R34/2000N -SHRA FEW003 BKN006 BKN012 20/20 Q1008 RMK 1ST003 5ST006 6CU012 A2978
RJFK 240231Z 18013KT 6000 -SHRA FEW003 SCT007 BKN010 20/19 Q1009 RMK 1ST003 3ST007 5CU010 A2979
RJFK 240217Z 17011KT 5000 SHRA BR FEW003 BKN009 BKN020 20/19 Q1009 RMK 1ST003 5ST009 6CU020 A2979
RJFK 240200Z 17013KT 9999 FEW003 SCT007 BKN020 20/20 Q1009 RMK 1ST003 3ST007 6CU020 A2980
RJFK 240100Z 17010KT 9999 FEW003 BKN007 BKN015 20/19 Q1009 RMK 1ST003 5ST007 6CU015 A2982
RJFK 240000Z 17011KT 9999 FEW003 BKN007 BKN015 20/19 Q1010 RMK 1ST003 5ST007 6CU015 A2983
RJFK 232300Z 14003KT 120V200 9999 FEW010 BKN015 BKN025 19/18 Q1010 RMK 1ST010 5CU015 6CU025 A2985
RJFK 232200Z 11003KT 090V160 9999 FEW010 BKN015 BKN025 19/18 Q1011 RMK 1ST010 5CU015 6CU025 A2986
RJFK 232100Z 13004KT 9999 -SHRA FEW010 BKN020 BKN030 18/18 Q1011 RMK 1ST010 5CU020 6CU030 A2986
RJFK 232049Z 13005KT 9999 -SHRA FEW010 BKN020 BKN030 19/18 Q1011 RMK 1ST010 5CU020 6CU030 A2986
RJFK 232039Z 13004KT 4000 -SHRA BR FEW010 BKN020 BKN030 19/18 Q1011 RMK 1ST010 5CU020 6CU030 A2986
RJFK 231200Z 12007KT 9999 FEW015 SCT030 BKN100 19/16 Q1015 RMK 1CU015 4CU030 6AC100 A2999
RJFK 231100Z 13007KT 9999 FEW020 BKN035 BKN100 19/15 Q1015 RMK 1CU020 5CU035 7AC100 A2999
RJFK 231000Z 12008KT 9999 FEW020 SCT030 BKN100 19/15 Q1015 RMK 1CU020 4CU030 7AC100 A2998
RJFK 230900Z 12007KT 9999 FEW020 SCT030 BKN100 20/15 Q1015 RMK 1CU020 3CU030 7AC100 A2997
RJFK 230800Z 12009KT 9999 FEW015 SCT030 BKN100 21/15 Q1014 RMK 1CU015 4CU030 7AC100 A2997
RJFK 230700Z 12007KT 090V160 9999 FEW010 BKN025 BKN080 21/15 Q1015 RMK 1CU010 6CU025 7AC080 A2998 VOLCANIC ASH CLOUD S
RJFK 230600Z 11008KT 9999 FEW010 BKN025 BKN080 21/15 Q1015 RMK 1CU010 6CU025 7AC080 A3000 VOLCANIC ASH CLOUD S-SW
RJFK 230500Z 14009KT 9999 FEW010 BKN025 BKN080 21/14 Q1016 RMK 1CU010 6CU025 7AC080 A3001 VOLCANIC ASH CLOUD S
RJFK 230400Z 15008KT 9999 FEW010 BKN025 BKN080 21/14 Q1017 RMK 1CU010 6CU025 7AC080 A3003 VOLCANIC ASH CLOUD S
RJFK 230300Z 15008KT 9999 -SHRA FEW010 BKN025 BKN080 20/15 Q1017 RMK 1CU010 6CU025 7AC080 A3005 VOLCANIC ASH CLOUD S
RJFK 230200Z 13006KT 9999 VA FEW010 BKN025 BKN080 20/15 Q1017 RMK 1CU010 6CU025 7AC080 A3005 ASH FALL VOLCANIC ASH CLOUD S-OHD AND OHD-N
RJFK 230104Z 11007KT 9999 VCVA FEW010 BKN025 BKN080 20/15 Q1018 RMK 1CU010 6CU025 7AC080 A3007 ASH FALL VOLCANIC ASH CLOUD S
RJFK 230100Z 10006KT 9999 FEW010 BKN025 BKN080 20/15 Q1018 RMK 1CU010 6CU025 7AC080 A3007 VOLCANIC ASH CLOUD S
RJFK 230029Z 11005KT 9999 FEW015 BKN025 19/14 Q1018 RMK 1CU015 7CU025 A3007 VOLCANIC ASH CLOUD S
RJFK 230000Z 10003KT 020V150 9999 VCVA FEW015 BKN030 19/14 Q1018 RMK 1CU015 7CU030 A3007 ASH FALL VOLCANIC ASH CLOUD S-W
RJFK 222300Z 12004KT 9999 VCVA FEW015 BKN030 19/14 Q1018 RMK 1CU015 7CU030 A3007 ASH FALL VOLCANIC ASH CLOUD S-SW
RJFK 222200Z 10003KT 9999 VCVA FEW015 SCT030 BKN080 18/14 Q1018 RMK 1CU015 4CU030 7AC080 A3006 ASH FALL VOLCANIC ASH CLOUD S-SW
RJFK 222100Z 10003KT 9999 FEW030 SCT080 BKN150 17/14 Q1017 RMK 1CU030 3AC080 7AC150 A3005 VOLCANIC ASH CLOUD S
RJFK 221200Z 11005KT 9999 FEW030 BKN/// 18/13 Q1018 RMK 1CU030 A3007
RJFK 221100Z 14006KT 9999 FEW030 BKN/// 18/13 Q1018